Time;durP1;ratioP1;P1;durP2;ratioP2;P2;SDS_P1;SDS_P2;PMS_P1;PMS_P2;Temp;Humidity;BMP_temperature;BMP_pressure;BME280_temperature;BME280_humidity;BME280_pressure;Samples;Min_cycle;Max_cycle;Signal;HPM_P1;HPM_P2
2021/01/09 00:01:43;;;;;;;32.90;18.60;;;22.40;30.80;;;;;;6095545;28;83490;-63
2021/01/09 00:04:43;;;;;;;36.55;19.50;;;22.40;30.90;;;;;;6116018;28;85998;-62
2021/01/09 00:07:44;;;;;;;38.30;20.35;;;22.40;30.70;;;;;;6100459;28;83300;-64
2021/01/09 00:10:45;;;;;;;39.90;20.80;;;22.40;30.80;;;;;;6101062;28;83708;-63
2021/01/09 00:13:45;;;;;;;36.92;20.58;;;22.40;30.90;;;;;;6099846;28;84367;-63
2021/01/09 00:16:45;;;;;;;37.05;20.05;;;22.40;30.90;;;;;;6087839;28;84282;-63
2021/01/09 00:19:46;;;;;;;35.97;19.38;;;22.40;30.90;;;;;;6096456;28;83442;-63
2021/01/09 00:22:46;;;;;;;35.08;19.08;;;22.40;30.90;;;;;;6100154;28;83659;-64
2021/01/09 00:25:47;;;;;;;38.55;19.75;;;22.40;30.70;;;;;;6096934;28;84345;-64
2021/01/09 00:28:48;;;;;;;40.33;19.55;;;22.40;30.80;;;;;;6101484;28;84653;-64
2021/01/09 00:31:48;;;;;;;39.25;19.40;;;22.40;30.80;;;;;;6090074;28;83839;-64
2021/01/09 00:34:49;;;;;;;38.08;20.80;;;22.40;30.80;;;;;;6093629;28;92217;-64
2021/01/09 00:37:49;;;;;;;37.03;19.52;;;22.40;30.90;;;;;;6100489;28;83799;-64
2021/01/09 00:40:50;;;;;;;38.72;19.52;;;22.30;31.40;;;;;;6101524;28;83447;-64
2021/01/09 00:43:50;;;;;;;43.22;21.50;;;22.40;30.70;;;;;;6095686;28;83854;-63
2021/01/09 00:46:50;;;;;;;38.10;20.73;;;22.40;30.90;;;;;;6098386;28;83666;-63
2021/01/09 00:49:51;;;;;;;37.92;19.85;;;22.40;30.80;;;;;;6089353;28;83253;-63
2021/01/09 00:52:51;;;;;;;43.70;20.23;;;22.30;31.00;;;;;;6102195;28;83456;-63
2021/01/09 00:55:52;;;;;;;33.85;19.75;;;22.30;31.10;;;;;;6100338;28;83795;-63
2021/01/09 00:58:52;;;;;;;34.97;18.95;;;22.40;30.90;;;;;;6093207;28;83233;-63
2021/01/09 01:01:53;;;;;;;37.35;20.35;;;22.30;31.00;;;;;;6099010;28;83159;-63
2021/01/09 01:04:53;;;;;;;36.38;19.95;;;22.30;31.20;;;;;;6101034;28;83446;-63
2021/01/09 01:07:54;;;;;;;34.80;19.98;;;22.30;31.30;;;;;;6098613;28;83694;-63
2021/01/09 01:10:55;;;;;;;32.58;18.15;;;22.30;31.10;;;;;;6090861;28;84263;-62
2021/01/09 01:13:55;;;;;;;38.90;20.10;;;22.30;31.30;;;;;;6100981;28;83495;-63
2021/01/09 01:16:56;;;;;;;35.03;19.60;;;22.30;31.20;;;;;;6098362;28;84174;-63
2021/01/09 01:19:56;;;;;;;35.10;19.63;;;22.30;31.30;;;;;;6094714;28;84529;-63
2021/01/09 01:22:56;;;;;;;40.28;18.42;;;22.20;31.30;;;;;;6099210;28;83202;-63
2021/01/09 01:25:57;;;;;;;40.38;20.60;;;22.30;32.00;;;;;;6099142;28;83693;-63
2021/01/09 01:28:59;;;;;;;39.20;20.02;;;22.20;31.30;;;;;;6099813;28;83603;-62
2021/01/09 01:32:00;;;;;;;37.38;19.55;;;22.20;31.20;;;;;;6098646;28;84237;-63
2021/01/09 01:35:00;;;;;;;37.28;18.35;;;22.20;31.30;;;;;;6099233;28;83448;-63
2021/01/09 01:38:01;;;;;;;39.25;19.27;;;22.20;31.90;;;;;;6099434;28;83276;-62
2021/01/09 01:41:01;;;;;;;35.95;19.30;;;22.20;32.20;;;;;;6098203;28;83706;-63
2021/01/09 01:44:02;;;;;;;34.50;17.58;;;22.20;32.20;;;;;;6096733;28;83481;-63
2021/01/09 01:47:02;;;;;;;32.75;18.67;;;22.20;32.20;;;;;;6100107;28;84840;-63
2021/01/09 01:50:03;;;;;;;35.70;18.45;;;22.20;32.30;;;;;;6098369;28;83227;-63
2021/01/09 01:53:03;;;;;;;31.33;16.73;;;22.20;31.80;;;;;;6097784;28;83080;-61
2021/01/09 01:56:04;;;;;;;34.80;16.65;;;22.20;32.30;;;;;;6098632;28;83669;-64
2021/01/09 01:59:05;;;;;;;33.40;17.35;;;22.20;32.10;;;;;;6099617;28;84120;-63
2021/01/09 02:02:05;;;;;;;34.13;16.13;;;22.20;32.40;;;;;;6099121;28;83341;-64
2021/01/09 02:05:06;;;;;;;27.10;15.23;;;22.20;32.60;;;;;;6094698;28;82810;-64
2021/01/09 02:08:06;;;;;;;28.55;15.65;;;22.20;32.70;;;;;;6095668;28;83579;-64
2021/01/09 02:11:06;;;;;;;27.85;15.20;;;22.20;32.40;;;;;;6098336;28;83010;-64
2021/01/09 02:14:07;;;;;;;30.10;15.70;;;22.20;32.30;;;;;;6099390;28;83313;-64
2021/01/09 02:17:07;;;;;;;27.45;14.57;;;22.20;32.10;;;;;;6090345;28;83314;-63
2021/01/09 02:20:08;;;;;;;24.77;13.40;;;22.20;32.20;;;;;;6094858;28;83382;-63
2021/01/09 02:23:08;;;;;;;25.95;13.48;;;22.20;32.10;;;;;;6096862;28;83505;-63
2021/01/09 02:26:09;;;;;;;25.92;13.05;;;22.20;32.70;;;;;;6098624;28;84591;-63
2021/01/09 02:29:09;;;;;;;25.20;13.13;;;22.10;32.00;;;;;;6099867;28;84123;-63
2021/01/09 02:32:10;;;;;;;23.40;12.88;;;22.10;32.10;;;;;;6098290;28;83473;-63
2021/01/09 02:35:10;;;;;;;26.02;12.90;;;22.10;31.90;;;;;;6096692;28;84633;-63
2021/01/09 02:38:11;;;;;;;21.80;11.77;;;22.10;31.80;;;;;;6100836;28;85110;-63
2021/01/09 02:41:11;;;;;;;23.02;11.77;;;22.10;32.20;;;;;;6097080;28;83497;-63
2021/01/09 02:44:14;;;;;;;22.30;11.15;;;22.10;31.90;;;;;;6102639;28;84079;-64
2021/01/09 02:47:14;;;;;;;23.10;12.00;;;22.10;31.90;;;;;;6118407;28;84106;-64
2021/01/09 02:50:15;;;;;;;20.48;10.98;;;22.10;31.80;;;;;;6101508;28;84493;-63
2021/01/09 02:53:15;;;;;;;19.17;11.02;;;22.10;31.80;;;;;;6092392;28;82972;-63
2021/01/09 02:56:16;;;;;;;18.80;11.13;;;22.10;31.80;;;;;;6103192;28;83653;-62
2021/01/09 02:59:16;;;;;;;18.67;10.52;;;22.00;31.80;;;;;;6092921;28;83847;-63
2021/01/09 03:02:17;;;;;;;17.50;9.88;;;22.00;31.80;;;;;;6093581;28;84222;-63
2021/01/09 03:05:17;;;;;;;16.75;9.52;;;22.00;31.70;;;;;;6106284;28;84178;-63
2021/01/09 03:08:18;;;;;;;17.23;10.25;;;22.10;31.70;;;;;;6104270;28;80657;-64
2021/01/09 03:11:18;;;;;;;16.42;9.73;;;22.10;31.60;;;;;;6102382;28;84124;-64
2021/01/09 03:14:19;;;;;;;16.25;8.57;;;22.10;31.60;;;;;;6098982;28;82302;-64
2021/01/09 03:17:19;;;;;;;18.15;9.73;;;22.10;31.60;;;;;;6105488;28;80644;-64
2021/01/09 03:20:20;;;;;;;14.65;8.65;;;22.10;31.50;;;;;;6093528;28;82011;-64
2021/01/09 03:23:20;;;;;;;17.20;10.20;;;22.10;31.50;;;;;;6095853;28;82021;-64
2021/01/09 03:26:21;;;;;;;13.27;7.53;;;22.10;31.70;;;;;;6101773;28;83073;-64
2021/01/09 03:29:21;;;;;;;15.48;8.18;;;22.10;31.50;;;;;;6103950;28;89852;-63
2021/01/09 03:32:22;;;;;;;17.50;8.80;;;22.10;31.60;;;;;;6100443;28;80674;-62
2021/01/09 03:35:22;;;;;;;15.50;8.32;;;22.10;31.70;;;;;;6103597;28;83625;-62
2021/01/09 03:38:23;;;;;;;13.55;7.55;;;22.10;31.60;;;;;;6090833;28;82126;-63
2021/01/09 03:41:23;;;;;;;11.60;6.88;;;22.10;31.50;;;;;;6104120;28;80911;-63
2021/01/09 03:44:24;;;;;;;14.52;7.32;;;22.10;31.80;;;;;;6105468;28;80636;-63
2021/01/09 03:47:24;;;;;;;15.43;7.47;;;22.10;31.50;;;;;;6100491;28;80506;-63
2021/01/09 03:50:25;;;;;;;14.07;6.95;;;22.10;31.70;;;;;;6103167;28;80901;-61
2021/01/09 03:53:25;;;;;;;11.18;6.25;;;22.10;31.60;;;;;;6100292;28;80978;-63
2021/01/09 03:56:26;;;;;;;13.32;6.72;;;22.10;31.40;;;;;;6101469;28;80594;-62
2021/01/09 03:59:26;;;;;;;10.80;6.18;;;22.10;31.80;;;;;;6091869;28;84006;-63
2021/01/09 04:02:27;;;;;;;11.10;6.43;;;22.10;31.60;;;;;;6094086;28;80763;-63
2021/01/09 04:05:28;;;;;;;11.65;6.40;;;22.10;31.70;;;;;;6104012;28;80698;-62
2021/01/09 04:08:28;;;;;;;13.82;6.22;;;22.10;31.50;;;;;;6102334;28;81323;-62
2021/01/09 04:11:29;;;;;;;11.48;6.47;;;22.10;31.70;;;;;;6074929;28;80279;-63
2021/01/09 04:14:29;;;;;;;11.13;5.95;;;22.10;31.70;;;;;;6096765;28;80705;-63
2021/01/09 04:17:30;;;;;;;10.77;6.20;;;22.10;31.80;;;;;;6096710;28;81383;-63
2021/01/09 04:20:30;;;;;;;12.60;6.40;;;22.10;31.80;;;;;;6104529;28;83270;-63
2021/01/09 04:23:31;;;;;;;8.63;5.10;;;22.10;32.00;;;;;;6104874;28;80384;-63
2021/01/09 04:26:31;;;;;;;9.90;5.20;;;22.00;31.70;;;;;;6096043;28;80894;-63
2021/01/09 04:29:32;;;;;;;9.15;5.50;;;22.10;31.90;;;;;;6102347;28;80431;-62
2021/01/09 04:32:32;;;;;;;8.35;4.80;;;22.10;31.80;;;;;;6102788;28;83342;-62
2021/01/09 04:35:33;;;;;;;8.90;5.07;;;22.10;32.50;;;;;;6089235;28;81072;-62
2021/01/09 04:38:33;;;;;;;10.45;5.32;;;22.10;31.90;;;;;;6103517;28;80220;-62
2021/01/09 04:41:34;;;;;;;8.35;4.53;;;22.10;31.80;;;;;;6097053;28;85138;-62
2021/01/09 04:44:37;;;;;;;7.10;4.95;;;22.10;31.80;;;;;;6102273;28;80591;-62
2021/01/09 04:47:37;;;;;;;9.25;5.22;;;22.10;31.90;;;;;;6105033;28;80832;-63
2021/01/09 04:50:38;;;;;;;6.65;4.43;;;22.10;31.80;;;;;;6099494;28;80790;-63
2021/01/09 04:53:38;;;;;;;7.90;4.47;;;22.10;31.60;;;;;;6077544;28;81993;-62
2021/01/09 04:56:39;;;;;;;9.10;5.05;;;22.00;31.40;;;;;;6102094;28;83637;-65
2021/01/09 04:59:40;;;;;;;9.07;4.57;;;22.10;31.70;;;;;;6095489;28;80792;-63
2021/01/09 05:02:40;;;;;;;10.40;4.50;;;22.10;31.70;;;;;;6102676;28;80996;-64
2021/01/09 05:05:41;;;;;;;9.25;4.60;;;22.20;31.80;;;;;;6097617;28;80993;-63
2021/01/09 05:08:41;;;;;;;7.70;4.63;;;22.20;31.40;;;;;;6103160;28;81732;-64
2021/01/09 05:11:42;;;;;;;7.50;4.53;;;22.30;31.30;;;;;;6097433;28;80758;-64
2021/01/09 05:14:42;;;;;;;8.18;4.90;;;22.30;31.30;;;;;;6102571;28;80335;-63
2021/01/09 05:17:43;;;;;;;8.43;4.65;;;22.30;30.80;;;;;;6097793;28;80844;-63
2021/01/09 05:20:43;;;;;;;7.88;4.43;;;22.30;30.70;;;;;;6104404;28;83366;-63
2021/01/09 05:23:50;;;;;;;7.32;4.40;;;22.40;30.90;;;;;;6100818;28;80570;-62
2021/01/09 05:26:50;;;;;;;9.68;5.18;;;22.40;31.00;;;;;;6095047;28;83489;-63
2021/01/09 05:29:51;;;;;;;7.90;4.70;;;22.40;31.10;;;;;;6094997;28;80440;-62
2021/01/09 05:32:51;;;;;;;8.02;4.15;;;22.40;31.10;;;;;;6101105;28;81584;-63
2021/01/09 05:35:55;;;;;;;8.63;5.07;;;22.40;30.40;;;;;;6096191;28;81087;-63
2021/01/09 05:38:55;;;;;;;6.10;4.05;;;22.40;30.50;;;;;;6097895;28;81866;-61
2021/01/09 05:41:56;;;;;;;5.90;3.70;;;22.50;31.40;;;;;;6100888;28;80623;-62
2021/01/09 05:44:56;;;;;;;7.00;4.63;;;22.50;31.60;;;;;;6099788;28;80385;-64
2021/01/09 05:47:57;;;;;;;8.32;4.82;;;22.50;30.70;;;;;;6083764;28;80730;-64
2021/01/09 05:50:57;;;;;;;8.95;4.95;;;22.50;31.40;;;;;;6097408;28;80730;-66
2021/01/09 05:53:58;;;;;;;9.70;5.18;;;22.70;30.60;;;;;;6085954;28;80853;-69
2021/01/09 05:56:58;;;;;;;9.90;4.70;;;22.70;31.00;;;;;;6081011;28;80559;-68
2021/01/09 05:59:59;;;;;;;13.10;5.28;;;22.80;31.60;;;;;;6053981;28;81077;-67
2021/01/09 06:02:59;;;;;;;9.63;5.00;;;22.90;31.80;;;;;;6077146;28;80099;-67
2021/01/09 06:06:00;;;;;;;10.32;4.63;;;22.90;32.40;;;;;;6077736;28;80851;-67
2021/01/09 06:09:00;;;;;;;8.18;4.32;;;23.00;32.90;;;;;;6078071;28;80871;-69
2021/01/09 06:12:01;;;;;;;7.00;3.75;;;23.00;34.10;;;;;;6073865;28;80484;-68
2021/01/09 06:15:01;;;;;;;7.95;4.28;;;23.00;37.30;;;;;;6079152;28;83099;-69
2021/01/09 06:18:02;;;;;;;8.40;4.18;;;23.00;34.50;;;;;;6075778;28;82822;-71
2021/01/09 06:21:02;;;;;;;9.95;4.72;;;23.00;33.10;;;;;;6067284;28;81454;-69
2021/01/09 06:24:03;;;;;;;12.00;4.82;;;23.10;34.00;;;;;;6079868;28;80750;-67
2021/01/09 06:27:04;;;;;;;8.48;5.00;;;23.20;34.40;;;;;;6069336;28;80844;-69
2021/01/09 06:30:04;;;;;;;8.30;4.93;;;23.20;34.50;;;;;;6079887;28;81585;-67
2021/01/09 06:33:05;;;;;;;11.73;6.25;;;23.20;34.40;;;;;;6074230;28;81479;-72
2021/01/09 06:36:05;;;;;;;10.40;5.25;;;23.20;34.10;;;;;;6081969;28;80434;-72
2021/01/09 06:39:06;;;;;;;13.00;6.05;;;23.20;34.00;;;;;;6076437;28;80428;-71
2021/01/09 06:42:06;;;;;;;9.13;4.70;;;23.20;33.80;;;;;;6083745;28;80913;-73
2021/01/09 06:45:07;;;;;;;9.43;4.50;;;23.20;33.60;;;;;;6063090;28;81742;-72
2021/01/09 06:48:07;;;;;;;16.20;5.90;;;23.20;33.50;;;;;;6072785;28;80407;-71
2021/01/09 06:51:08;;;;;;;14.43;4.95;;;23.20;33.60;;;;;;6074315;28;87809;-70
2021/01/09 06:54:08;;;;;;;14.07;6.18;;;23.20;33.30;;;;;;6085789;28;81601;-70
2021/01/09 06:57:09;;;;;;;11.45;5.20;;;23.20;33.50;;;;;;6094293;28;80346;-70
2021/01/09 07:00:10;;;;;;;9.57;5.13;;;23.20;33.40;;;;;;6097259;28;80710;-64
2021/01/09 07:03:10;;;;;;;8.85;5.60;;;23.20;33.50;;;;;;6101536;28;80552;-65
2021/01/09 07:06:11;;;;;;;11.82;5.28;;;23.20;33.70;;;;;;6096971;28;83238;-65
2021/01/09 07:09:11;;;;;;;11.93;5.70;;;23.20;33.50;;;;;;6100449;28;80689;-64
2021/01/09 07:12:12;;;;;;;7.95;5.20;;;23.20;33.30;;;;;;6101696;28;80668;-63
2021/01/09 07:15:12;;;;;;;10.57;5.32;;;23.20;33.10;;;;;;6091725;28;80899;-63
2021/01/09 07:18:13;;;;;;;8.88;4.95;;;23.10;33.50;;;;;;6086335;28;84430;-63
2021/01/09 07:21:13;;;;;;;9.63;5.78;;;23.10;33.20;;;;;;6100958;28;80950;-63
2021/01/09 07:24:14;;;;;;;11.25;5.10;;;23.10;32.40;;;;;;6104005;28;81657;-63
2021/01/09 07:27:15;;;;;;;7.43;4.97;;;23.00;32.10;;;;;;6102820;28;85170;-64
2021/01/09 07:30:15;;;;;;;15.35;5.68;;;23.00;32.30;;;;;;6103655;28;80958;-64
2021/01/09 07:33:16;;;;;;;10.80;6.15;;;23.00;32.50;;;;;;6104872;28;80657;-64
2021/01/09 07:36:16;;;;;;;11.07;4.85;;;23.00;32.50;;;;;;6100845;28;80746;-64
2021/01/09 07:39:21;;;;;;;12.73;5.97;;;22.90;32.30;;;;;;6105478;28;80672;-64
2021/01/09 07:42:22;;;;;;;13.95;5.75;;;23.00;32.60;;;;;;6104660;28;80849;-64
2021/01/09 07:45:22;;;;;;;8.95;6.13;;;23.00;33.10;;;;;;6098938;28;80983;-63
2021/01/09 07:48:23;;;;;;;10.77;5.95;;;23.00;33.00;;;;;;6094545;28;82999;-63
2021/01/09 07:51:23;;;;;;;10.10;5.70;;;23.00;33.20;;;;;;6084296;28;81316;-64
2021/01/09 07:54:25;;;;;;;10.35;5.70;;;23.00;33.30;;;;;;6089779;28;80611;-65
2021/01/09 07:57:26;;;;;;;11.48;6.47;;;23.00;33.60;;;;;;6109352;28;80992;-64
2021/01/09 08:00:26;;;;;;;11.23;6.63;;;23.00;33.80;;;;;;6100073;28;83034;-65
2021/01/09 08:03:27;;;;;;;9.98;5.97;;;23.00;34.10;;;;;;6104651;28;80880;-64
2021/01/09 08:06:27;;;;;;;10.65;6.32;;;23.00;34.50;;;;;;6095165;28;80589;-65
2021/01/09 08:09:28;;;;;;;14.52;6.50;;;23.00;33.80;;;;;;6096907;28;83337;-67
2021/01/09 08:12:28;;;;;;;11.65;6.32;;;22.90;33.90;;;;;;6104108;28;80814;-65
2021/01/09 08:15:29;;;;;;;14.85;6.43;;;22.90;33.70;;;;;;6105949;28;81214;-64
2021/01/09 08:18:29;;;;;;;11.38;5.93;;;22.90;34.00;;;;;;6102586;28;80921;-65
2021/01/09 08:21:30;;;;;;;13.00;6.80;;;23.00;33.80;;;;;;6103952;28;82099;-67
2021/01/09 08:24:31;;;;;;;17.00;5.85;;;23.00;34.20;;;;;;6103344;28;80263;-65
2021/01/09 08:27:31;;;;;;;10.68;6.07;;;22.90;34.20;;;;;;6104999;28;81441;-64
2021/01/09 08:30:32;;;;;;;11.48;7.40;;;22.90;34.30;;;;;;6101779;28;80523;-65
2021/01/09 08:33:32;;;;;;;10.07;6.25;;;22.90;34.10;;;;;;6100900;28;80762;-64
2021/01/09 08:36:33;;;;;;;11.95;6.82;;;22.90;34.40;;;;;;6103453;28;80827;-63
2021/01/09 08:39:33;;;;;;;14.10;7.18;;;22.90;33.70;;;;;;6101685;28;85444;-65
2021/01/09 08:42:34;;;;;;;16.48;6.82;;;23.00;33.90;;;;;;6092958;28;80654;-66
2021/01/09 08:45:34;;;;;;;11.20;7.22;;;23.00;33.80;;;;;;6096962;28;81920;-64
2021/01/09 08:48:35;;;;;;;10.82;6.43;;;23.00;33.90;;;;;;6103138;28;80551;-65
2021/01/09 08:51:35;;;;;;;12.95;6.85;;;23.10;34.40;;;;;;6102362;28;80356;-65
2021/01/09 08:54:36;;;;;;;13.00;7.00;;;23.10;35.30;;;;;;6102988;28;80828;-65
2021/01/09 08:57:36;;;;;;;11.88;6.75;;;23.20;34.80;;;;;;6088067;28;81452;-64
2021/01/09 09:00:37;;;;;;;12.93;6.97;;;23.20;35.30;;;;;;6099469;28;80647;-65
2021/01/09 09:03:37;;;;;;;12.30;6.70;;;23.20;35.00;;;;;;6099883;28;80897;-63
2021/01/09 09:06:38;;;;;;;11.55;6.75;;;23.20;34.50;;;;;;6098711;28;82643;-64
2021/01/09 09:09:38;;;;;;;11.43;6.60;;;23.20;34.50;;;;;;6120516;28;81674;-64
2021/01/09 09:12:39;;;;;;;12.23;6.97;;;23.30;35.10;;;;;;6087700;28;86475;-64
2021/01/09 09:15:40;;;;;;;10.27;6.47;;;23.30;34.30;;;;;;6103266;28;81144;-64
2021/01/09 09:18:40;;;;;;;12.27;6.68;;;23.30;34.10;;;;;;6102644;28;81612;-63
2021/01/09 09:21:41;;;;;;;12.05;6.35;;;23.30;34.20;;;;;;6096839;28;81894;-64
2021/01/09 09:24:41;;;;;;;14.60;7.38;;;23.30;33.80;;;;;;6101589;28;81967;-63
2021/01/09 09:27:42;;;;;;;10.75;6.57;;;23.30;33.70;;;;;;6094762;28;81701;-64
2021/01/09 09:30:42;;;;;;;11.32;7.18;;;23.40;33.90;;;;;;6097871;28;80537;-63
2021/01/09 09:33:43;;;;;;;11.77;7.20;;;23.40;33.20;;;;;;6097592;28;80911;-63
2021/01/09 09:36:43;;;;;;;12.38;7.32;;;23.40;33.20;;;;;;6104425;28;80497;-65
2021/01/09 09:39:44;;;;;;;11.48;6.93;;;23.50;33.30;;;;;;6103025;28;80564;-64
2021/01/09 09:42:44;;;;;;;11.93;6.63;;;23.50;33.50;;;;;;6102116;28;80877;-64
2021/01/09 09:45:45;;;;;;;11.50;6.43;;;23.50;33.70;;;;;;6099116;28;80309;-63
2021/01/09 09:48:47;;;;;;;12.02;6.95;;;23.60;33.90;;;;;;6095685;28;81346;-66
2021/01/09 09:51:47;;;;;;;11.90;7.43;;;23.60;33.80;;;;;;6095939;28;81011;-65
2021/01/09 09:54:48;;;;;;;14.63;7.65;;;23.70;33.20;;;;;;6096779;28;81309;-64
2021/01/09 09:57:48;;;;;;;13.35;7.47;;;23.70;33.00;;;;;;6099270;28;80871;-64
2021/01/09 10:00:49;;;;;;;11.63;7.32;;;23.70;33.00;;;;;;6089595;28;81245;-65
2021/01/09 10:03:49;;;;;;;12.75;7.78;;;23.70;32.90;;;;;;6099659;28;80824;-65
2021/01/09 10:06:51;;;;;;;9.98;6.88;;;23.70;32.40;;;;;;6098091;28;80982;-63
2021/01/09 10:09:51;;;;;;;14.65;7.95;;;23.80;32.40;;;;;;6095086;28;81795;-62
2021/01/09 10:12:52;;;;;;;9.20;6.32;;;23.80;32.10;;;;;;6092267;28;80785;-64
2021/01/09 10:15:52;;;;;;;12.02;6.80;;;23.90;32.20;;;;;;6092335;28;82035;-64
2021/01/09 10:18:53;;;;;;;14.38;7.25;;;23.90;32.20;;;;;;6090977;28;80348;-65
2021/01/09 10:21:53;;;;;;;13.85;7.10;;;23.90;32.30;;;;;;6094048;28;80375;-64
2021/01/09 10:24:54;;;;;;;12.13;6.85;;;23.90;31.80;;;;;;6092711;28;84113;-64
2021/01/09 10:27:54;;;;;;;10.75;6.65;;;23.90;32.00;;;;;;6101967;28;80664;-62
2021/01/09 10:30:55;;;;;;;14.27;6.95;;;23.90;32.00;;;;;;6095699;28;81559;-62
2021/01/09 10:33:55;;;;;;;10.75;5.88;;;23.80;31.80;;;;;;6096429;28;81454;-64
2021/01/09 10:36:56;;;;;;;11.68;6.10;;;23.80;32.10;;;;;;6088800;28;80563;-62
2021/01/09 10:39:56;;;;;;;13.05;6.97;;;23.70;31.60;;;;;;6100811;28;81565;-62
2021/01/09 10:42:57;;;;;;;9.90;6.07;;;23.70;31.40;;;;;;6094653;28;80464;-63
2021/01/09 10:45:57;;;;;;;11.63;5.75;;;23.70;31.70;;;;;;6097362;28;82159;-63
2021/01/09 10:48:58;;;;;;;14.52;6.60;;;23.70;31.50;;;;;;6098302;28;80632;-63
2021/01/09 10:51:59;;;;;;;9.80;6.00;;;23.70;31.60;;;;;;6095640;28;80306;-63
2021/01/09 10:54:59;;;;;;;11.55;6.05;;;23.70;31.50;;;;;;6102010;28;80637;-60
2021/01/09 10:58:00;;;;;;;8.65;5.95;;;23.60;31.60;;;;;;6104474;28;80663;-63
2021/01/09 11:01:00;;;;;;;11.30;6.32;;;23.70;31.90;;;;;;6101366;28;81366;-63
2021/01/09 11:04:01;;;;;;;11.18;6.30;;;23.70;31.70;;;;;;6106178;28;80647;-64
2021/01/09 11:07:01;;;;;;;11.93;5.45;;;23.70;32.00;;;;;;6102141;28;80673;-65
2021/01/09 11:10:02;;;;;;;11.35;6.25;;;23.70;32.30;;;;;;6091720;28;80936;-63
2021/01/09 11:13:02;;;;;;;11.98;6.55;;;23.70;32.40;;;;;;6103830;28;81003;-64
2021/01/09 11:16:03;;;;;;;9.70;6.03;;;23.70;32.90;;;;;;6104440;28;80935;-63
2021/01/09 11:19:03;;;;;;;14.43;6.15;;;23.60;33.00;;;;;;6103260;28;80669;-64
2021/01/09 11:22:04;;;;;;;11.60;5.72;;;23.60;33.60;;;;;;6104190;28;82630;-63
2021/01/09 11:25:05;;;;;;;12.57;6.38;;;23.50;34.00;;;;;;6102760;28;81233;-63
2021/01/09 11:28:05;;;;;;;14.43;6.05;;;23.50;33.60;;;;;;6104593;28;80955;-63
2021/01/09 11:31:06;;;;;;;10.43;6.57;;;23.50;34.50;;;;;;6100750;28;81716;-61
2021/01/09 11:34:06;;;;;;;13.48;6.45;;;23.50;35.50;;;;;;6093038;28;81187;-62
2021/01/09 11:37:07;;;;;;;14.15;7.53;;;23.50;35.60;;;;;;6092868;28;81098;-62
2021/01/09 11:40:07;;;;;;;12.30;6.78;;;23.50;36.00;;;;;;6101363;28;83928;-61
2021/01/09 11:43:08;;;;;;;11.30;6.53;;;23.50;36.50;;;;;;6104738;28;80913;-62
2021/01/09 11:46:08;;;;;;;11.02;6.50;;;23.50;37.00;;;;;;6104682;28;80825;-62
2021/01/09 11:49:09;;;;;;;10.65;6.72;;;23.50;36.00;;;;;;6103640;28;81241;-65
2021/01/09 11:52:10;;;;;;;12.07;6.63;;;23.50;37.80;;;;;;6100356;28;80581;-63
2021/01/09 11:55:10;;;;;;;9.80;6.43;;;23.40;38.40;;;;;;6106375;28;80878;-62
2021/01/09 11:58:11;;;;;;;11.45;6.70;;;23.40;38.10;;;;;;6104690;28;81050;-61
2021/01/09 12:01:11;;;;;;;16.17;6.45;;;23.40;37.90;;;;;;6104201;28;80729;-62
2021/01/09 12:04:12;;;;;;;10.75;6.35;;;23.40;38.70;;;;;;6104739;28;80659;-62
2021/01/09 12:07:12;;;;;;;12.27;6.55;;;23.40;37.80;;;;;;6103717;28;80953;-62
2021/01/09 12:10:13;;;;;;;13.32;6.35;;;23.40;37.20;;;;;;6103715;28;80877;-66
2021/01/09 12:13:13;;;;;;;10.43;5.75;;;23.30;37.10;;;;;;6098690;28;80419;-64
2021/01/09 12:16:14;;;;;;;8.55;5.85;;;23.30;37.10;;;;;;6094357;28;81627;-65
2021/01/09 12:19:15;;;;;;;13.13;6.05;;;23.30;37.00;;;;;;6105006;28;81702;-61
2021/01/09 12:22:15;;;;;;;8.30;5.20;;;23.20;37.20;;;;;;6103930;28;80364;-62
2021/01/09 12:25:16;;;;;;;13.40;5.65;;;23.20;37.70;;;;;;6091710;28;80414;-61
2021/01/09 12:28:16;;;;;;;13.02;6.22;;;23.20;36.90;;;;;;6104864;28;80580;-61
2021/01/09 12:31:17;;;;;;;12.50;6.28;;;23.20;37.20;;;;;;6104831;28;81057;-61
2021/01/09 12:34:17;;;;;;;9.25;5.88;;;23.20;37.10;;;;;;6104092;28;81688;-60
2021/01/09 12:37:18;;;;;;;13.05;6.53;;;23.10;37.00;;;;;;6103572;28;82574;-62
2021/01/09 12:40:19;;;;;;;9.98;6.45;;;23.20;37.10;;;;;;6102933;28;80733;-62
2021/01/09 12:43:19;;;;;;;10.00;5.55;;;23.10;36.50;;;;;;6105029;28;81946;-61
2021/01/09 12:46:20;;;;;;;9.68;5.57;;;23.10;36.20;;;;;;6103456;28;80612;-63
2021/01/09 12:49:20;;;;;;;10.30;6.10;;;23.10;36.20;;;;;;6103068;28;80811;-62
2021/01/09 12:52:21;;;;;;;12.38;6.63;;;23.10;36.10;;;;;;6101482;28;81116;-61
2021/01/09 12:55:21;;;;;;;12.88;7.15;;;23.10;35.80;;;;;;6100733;28;80992;-62
2021/01/09 12:58:22;;;;;;;12.38;6.53;;;23.10;35.70;;;;;;6100561;28;82329;-62
2021/01/09 13:01:22;;;;;;;11.70;6.82;;;23.10;35.40;;;;;;6104155;28;81373;-63
2021/01/09 13:04:23;;;;;;;11.80;6.55;;;23.20;35.30;;;;;;6094761;28;83191;-63
2021/01/09 13:07:24;;;;;;;12.15;7.40;;;23.10;35.00;;;;;;6100989;28;81550;-62
2021/01/09 13:10:24;;;;;;;19.17;6.88;;;23.10;34.60;;;;;;6090502;28;81264;-63
2021/01/09 13:13:25;;;;;;;10.45;6.22;;;23.10;34.80;;;;;;6097573;28;80603;-63
2021/01/09 13:16:25;;;;;;;12.65;7.10;;;23.10;34.80;;;;;;6092951;28;80813;-62
2021/01/09 13:19:26;;;;;;;13.95;7.35;;;23.10;34.70;;;;;;6082042;28;81225;-62
2021/01/09 13:22:26;;;;;;;11.52;6.53;;;23.10;34.50;;;;;;6093799;28;81577;-63
2021/01/09 13:25:27;;;;;;;12.35;6.75;;;23.10;34.40;;;;;;6094753;28;81548;-64
2021/01/09 13:28:27;;;;;;;13.07;6.80;;;23.00;34.30;;;;;;6100449;28;80435;-63
2021/01/09 13:31:28;;;;;;;15.43;8.05;;;23.00;34.00;;;;;;6116823;28;81532;-62
2021/01/09 13:34:28;;;;;;;13.15;7.80;;;23.00;34.00;;;;;;6093968;28;80812;-63
2021/01/09 13:37:29;;;;;;;14.52;7.57;;;23.00;33.80;;;;;;6091386;28;83645;-62
2021/01/09 13:40:29;;;;;;;15.32;8.02;;;23.00;33.80;;;;;;6100154;28;80356;-62
2021/01/09 13:43:30;;;;;;;15.98;8.43;;;23.00;33.60;;;;;;6097705;28;82213;-61
2021/01/09 13:46:31;;;;;;;14.95;6.88;;;23.00;33.10;;;;;;6097440;28;80949;-62
2021/01/09 13:49:32;;;;;;;15.65;8.35;;;23.00;33.30;;;;;;6101898;28;81088;-63
2021/01/09 13:52:32;;;;;;;14.77;8.30;;;23.00;32.90;;;;;;6099593;28;80901;-64
2021/01/09 13:55:33;;;;;;;12.23;7.30;;;23.10;32.60;;;;;;6080939;28;81093;-63
2021/01/09 13:58:34;;;;;;;13.35;7.55;;;23.10;32.40;;;;;;6071890;28;83054;-64
2021/01/09 14:01:34;;;;;;;14.63;8.63;;;23.10;32.30;;;;;;6071483;28;81616;-63
2021/01/09 14:04:35;;;;;;;15.13;8.52;;;23.20;32.10;;;;;;6073957;28;81632;-64
2021/01/09 14:07:35;;;;;;;18.48;9.18;;;23.20;31.80;;;;;;6074863;28;80520;-63
2021/01/09 14:10:36;;;;;;;15.82;9.15;;;23.20;31.80;;;;;;6071437;28;83791;-64
2021/01/09 14:13:36;;;;;;;14.15;8.90;;;23.20;31.80;;;;;;6076922;28;80130;-63
2021/01/09 14:16:38;;;;;;;16.27;9.20;;;23.20;31.60;;;;;;6045301;28;80829;-63
2021/01/09 14:19:38;;;;;;;14.98;8.77;;;23.20;31.40;;;;;;6079147;28;81501;-64
2021/01/09 14:22:39;;;;;;;13.45;7.72;;;23.20;31.30;;;;;;6068529;28;82460;-63
2021/01/09 14:25:39;;;;;;;14.85;8.50;;;23.20;31.40;;;;;;6078713;28;80440;-63
2021/01/09 14:28:40;;;;;;;16.33;9.25;;;23.20;31.30;;;;;;6077233;28;81139;-66
2021/01/09 14:31:41;;;;;;;18.42;8.88;;;23.20;31.20;;;;;;6068840;28;81146;-64
2021/01/09 14:34:41;;;;;;;14.80;8.57;;;23.20;31.90;;;;;;6079866;28;80773;-64
2021/01/09 14:37:42;;;;;;;17.27;9.25;;;23.30;32.10;;;;;;6075786;28;81359;-66
2021/01/09 14:40:42;;;;;;;15.40;8.77;;;23.30;31.90;;;;;;6082189;28;80780;-67
2021/01/09 14:43:43;;;;;;;17.17;8.80;;;23.40;32.10;;;;;;6079450;28;80683;-66
2021/01/09 14:46:44;;;;;;;14.85;9.00;;;23.40;32.30;;;;;;6082367;28;80660;-64
2021/01/09 14:49:44;;;;;;;16.30;9.88;;;23.40;32.10;;;;;;6071758;28;84414;-68
2021/01/09 14:52:45;;;;;;;20.92;10.88;;;23.40;32.80;;;;;;6079946;28;80692;-68
2021/01/09 14:55:45;;;;;;;16.63;9.50;;;23.40;33.30;;;;;;6115842;28;85873;-66
2021/01/09 14:58:46;;;;;;;19.00;10.60;;;23.40;33.40;;;;;;6103705;28;83098;-67
2021/01/09 15:01:46;;;;;;;16.30;9.75;;;23.40;33.50;;;;;;6102296;28;84494;-65
2021/01/09 15:04:47;;;;;;;18.92;10.25;;;23.40;33.40;;;;;;6103111;28;84263;-66
2021/01/09 15:07:48;;;;;;;21.10;9.75;;;23.40;33.30;;;;;;6094215;28;83267;-66
2021/01/09 15:10:49;;;;;;;17.02;10.60;;;23.40;33.70;;;;;;6103215;28;82381;-66
2021/01/09 15:13:50;;;;;;;20.13;11.25;;;23.40;33.20;;;;;;6099205;28;83787;-66
2021/01/09 15:16:51;;;;;;;19.23;10.23;;;23.40;33.00;;;;;;6096601;28;82922;-64
2021/01/09 15:19:51;;;;;;;20.50;10.68;;;23.40;32.90;;;;;;6099659;28;83548;-63
2021/01/09 15:22:52;;;;;;;21.75;10.23;;;23.30;33.00;;;;;;6103757;28;83094;-65
2021/01/09 15:25:52;;;;;;;21.83;11.20;;;23.30;33.20;;;;;;6099925;28;83081;-63